createdAt,value
2023-05-19T00:01:01.544Z,102106.00
2023-05-19T00:03:34.048Z,102106.00
2023-05-19T00:06:06.210Z,102107.00
2023-05-19T00:08:37.907Z,102112.00
2023-05-19T00:11:09.226Z,102103.00
2023-05-19T00:13:42.291Z,102103.00
2023-05-19T00:16:14.865Z,102114.00
2023-05-19T00:18:45.178Z,102109.00
2023-05-19T00:21:15.375Z,102117.00
2023-05-19T00:23:45.649Z,102109.00
2023-05-19T00:26:15.978Z,102109.00
2023-05-19T00:28:48.636Z,102113.00
2023-05-19T00:31:18.833Z,102107.00
2023-05-19T00:33:48.964Z,102106.00
2023-05-19T00:36:19.098Z,102104.00
2023-05-19T00:38:49.165Z,102107.00
2023-05-19T00:41:19.273Z,102098.00
2023-05-19T00:43:52.301Z,102109.00
2023-05-19T00:46:23.218Z,102102.00
2023-05-19T00:48:53.404Z,102103.00
2023-05-19T00:51:23.730Z,102110.00
2023-05-19T00:53:54.215Z,102111.00
2023-05-19T00:56:24.590Z,102104.00
2023-05-19T00:58:58.353Z,102100.00
2023-05-19T01:01:28.727Z,102105.00
2023-05-19T01:03:59.774Z,102101.00
2023-05-19T01:06:30.643Z,102102.00
2023-05-19T01:09:00.864Z,102111.00
2023-05-19T01:11:30.916Z,102105.00
2023-05-19T01:14:03.721Z,102105.00
2023-05-19T01:16:39.989Z,102104.00
2023-05-19T01:19:35.357Z,102098.00
2023-05-19T01:22:43.028Z,102106.00
2023-05-19T01:25:56.257Z,102101.00
2023-05-19T01:29:01.023Z,102098.00
2023-05-19T01:31:34.416Z,102102.00
2023-05-19T01:34:06.476Z,102102.00
2023-05-19T01:36:37.528Z,102107.00
2023-05-19T01:39:08.107Z,102107.00
2023-05-19T01:41:38.643Z,102100.00
2023-05-19T01:44:09.185Z,102101.00
2023-05-19T01:46:42.804Z,102101.00
2023-05-19T01:49:12.960Z,102104.00
2023-05-19T01:51:44.315Z,102100.00
2023-05-19T01:54:14.455Z,102100.00
2023-05-19T01:57:00.347Z,102106.00
2023-05-19T01:59:44.293Z,102100.00
2023-05-19T02:02:29.858Z,102106.00
2023-05-19T02:05:08.917Z,102107.00
2023-05-19T02:07:47.981Z,102107.00
2023-05-19T02:10:25.738Z,102101.00
2023-05-19T02:12:57.280Z,102103.00
2023-05-19T02:15:29.613Z,102092.00
2023-05-19T02:18:04.704Z,102104.00
2023-05-19T02:20:35.250Z,102098.00
2023-05-19T02:23:05.390Z,102097.00
2023-05-19T02:25:35.630Z,102098.00
2023-05-19T02:28:06.917Z,102102.00
2023-05-19T02:30:37.077Z,102104.00
2023-05-19T02:33:11.608Z,102101.00
2023-05-19T02:35:41.710Z,102095.00
2023-05-19T02:38:11.765Z,102102.00
2023-05-19T02:40:41.886Z,102101.00
2023-05-19T02:43:12.193Z,102095.00
2023-05-19T02:45:42.458Z,102098.00
2023-05-19T02:48:15.182Z,102088.00
2023-05-19T02:50:45.269Z,102085.00
2023-05-19T02:53:15.360Z,102083.00
2023-05-19T02:55:45.976Z,102084.00
2023-05-19T02:58:16.037Z,102077.00
2023-05-19T03:00:46.936Z,102084.00
2023-05-19T03:03:20.029Z,102085.00
2023-05-19T03:05:50.246Z,102087.00
2023-05-19T03:08:20.353Z,102087.00
2023-05-19T03:10:51.151Z,102087.00
2023-05-19T03:13:21.197Z,102086.00
2023-05-19T03:15:51.650Z,102073.00
2023-05-19T03:18:24.944Z,102072.00
2023-05-19T03:20:55.779Z,102075.00
2023-05-19T03:23:26.745Z,102080.00
2023-05-19T03:25:56.969Z,102079.00
2023-05-19T03:28:27.469Z,102082.00
2023-05-19T03:30:57.590Z,102090.00
2023-05-19T03:33:30.847Z,102090.00
2023-05-19T03:36:01.079Z,102091.00
2023-05-19T03:38:31.194Z,102096.00
2023-05-19T03:41:01.261Z,102084.00
2023-05-19T03:43:31.363Z,102081.00
2023-05-19T03:46:02.433Z,102092.00
2023-05-19T03:48:35.241Z,102086.00
2023-05-19T03:51:05.301Z,102088.00
2023-05-19T03:53:35.397Z,102091.00
2023-05-19T03:56:05.656Z,102089.00
2023-05-19T03:58:37.220Z,102088.00
2023-05-19T04:01:07.462Z,102091.00
2023-05-19T04:03:40.294Z,102093.00
2023-05-19T04:06:11.301Z,102095.00
2023-05-19T04:08:42.072Z,102085.00
2023-05-19T04:11:12.404Z,102093.00
2023-05-19T04:13:42.526Z,102098.00
2023-05-19T04:16:12.838Z,102090.00
2023-05-19T04:18:46.655Z,102099.00
2023-05-19T04:21:16.787Z,102095.00
2023-05-19T04:23:46.924Z,102098.00
2023-05-19T04:26:18.212Z,102090.00
2023-05-19T04:28:48.526Z,102085.00
2023-05-19T04:31:18.729Z,102102.00
2023-05-19T04:33:53.633Z,102091.00
2023-05-19T04:36:24.235Z,102102.00
2023-05-19T04:38:55.055Z,102099.00
2023-05-19T04:41:25.176Z,102100.00
2023-05-19T04:43:57.651Z,102099.00
2023-05-19T04:46:30.480Z,102100.00
2023-05-19T04:49:04.060Z,102101.00
2023-05-19T04:51:35.978Z,102096.00
2023-05-19T04:54:06.576Z,102100.00
2023-05-19T04:56:36.677Z,102105.00
2023-05-19T04:59:07.093Z,102093.00
2023-05-19T05:01:40.503Z,102099.00
2023-05-19T05:04:13.400Z,102097.00
2023-05-19T05:06:48.008Z,102107.00
2023-05-19T05:09:19.045Z,102094.00
2023-05-19T05:11:50.135Z,102096.00
2023-05-19T05:14:21.449Z,102095.00
2023-05-19T05:16:53.865Z,102107.00
2023-05-19T05:19:27.629Z,102096.00
2023-05-19T05:21:58.884Z,102106.00
2023-05-19T05:24:30.302Z,102101.00
2023-05-19T05:27:00.389Z,102112.00
2023-05-19T05:29:30.503Z,102106.00
2023-05-19T05:32:00.614Z,102104.00
2023-05-19T05:34:33.456Z,102103.00
2023-05-19T05:37:03.548Z,102111.00
2023-05-19T05:39:34.095Z,102106.00
2023-05-19T05:42:04.181Z,102108.00
2023-05-19T05:44:35.865Z,102107.00
2023-05-19T05:47:07.285Z,102110.00
2023-05-19T05:49:42.130Z,102106.00
2023-05-19T05:52:14.996Z,102105.00
2023-05-19T05:54:46.543Z,102103.00
2023-05-19T05:57:17.541Z,102106.00
2023-05-19T05:59:48.084Z,102100.00
2023-05-19T06:02:18.626Z,102103.00
2023-05-19T06:04:51.710Z,102104.00
2023-05-19T06:07:22.160Z,102104.00
2023-05-19T06:09:52.663Z,102107.00
2023-05-19T06:12:23.158Z,102111.00
2023-05-19T06:14:53.632Z,102107.00
2023-05-19T06:17:24.043Z,102102.00
2023-05-19T06:19:57.071Z,102096.00
2023-05-19T06:22:28.309Z,102105.00
2023-05-19T06:24:58.786Z,102100.00
2023-05-19T06:27:29.267Z,102101.00
2023-05-19T06:29:59.709Z,102105.00
2023-05-19T06:32:30.233Z,102105.00
2023-05-19T06:35:03.551Z,102108.00
2023-05-19T06:37:34.064Z,102108.00
2023-05-19T06:40:05.859Z,102105.00
2023-05-19T06:42:36.306Z,102102.00
2023-05-19T06:45:07.085Z,102101.00
2023-05-19T06:47:37.625Z,102100.00
2023-05-19T06:50:11.706Z,102105.00
2023-05-19T06:52:42.178Z,102119.00
2023-05-19T06:55:12.790Z,102115.00
2023-05-19T06:57:43.226Z,102112.00
2023-05-19T07:00:20.647Z,102112.00
2023-05-19T07:02:52.676Z,102126.00
2023-05-19T07:05:26.086Z,102119.00
2023-05-19T07:07:56.515Z,102120.00
2023-05-19T07:10:27.180Z,102114.00
2023-05-19T07:12:58.304Z,102116.00
2023-05-19T07:15:28.757Z,102119.00
2023-05-19T07:17:59.266Z,102126.00
2023-05-19T07:20:32.615Z,102126.00
2023-05-19T07:23:03.159Z,102131.00
2023-05-19T07:25:33.631Z,102121.00
2023-05-19T07:28:04.085Z,102118.00
2023-05-19T07:30:34.888Z,102129.00
2023-05-19T07:33:07.119Z,102128.00
2023-05-19T07:35:40.292Z,102126.00
2023-05-19T07:38:10.775Z,102119.00
2023-05-19T07:40:41.205Z,102116.00
2023-05-19T07:43:11.663Z,102121.00
2023-05-19T07:45:42.541Z,102126.00
2023-05-19T07:48:13.133Z,102121.00
2023-05-19T07:50:46.202Z,102112.00
2023-05-19T07:53:16.913Z,102117.00
2023-05-19T07:55:49.630Z,102110.00
2023-05-19T07:58:20.830Z,102106.00
2023-05-19T08:00:51.254Z,102109.00
2023-05-19T08:03:23.657Z,102108.00
2023-05-19T08:05:56.880Z,102114.00
2023-05-19T08:08:27.338Z,102109.00
2023-05-19T08:10:57.766Z,102108.00
2023-05-19T08:13:28.250Z,102109.00
2023-05-19T08:16:00.156Z,102115.00
2023-05-19T08:18:31.048Z,102108.00
2023-05-19T08:21:03.893Z,102109.00
2023-05-19T08:23:33.985Z,102110.00
2023-05-19T08:26:04.268Z,102109.00
2023-05-19T08:28:34.459Z,102105.00
2023-05-19T08:31:04.679Z,102109.00
2023-05-19T08:33:34.789Z,102119.00
2023-05-19T08:36:08.910Z,102120.00
2023-05-19T08:38:38.967Z,102111.00
2023-05-19T08:41:09.151Z,102117.00
2023-05-19T08:43:39.608Z,102107.00
2023-05-19T08:46:10.011Z,102114.00
2023-05-19T08:48:42.476Z,102109.00
2023-05-19T08:51:24.163Z,102109.00
2023-05-19T08:53:57.870Z,102098.00
2023-05-19T08:56:28.033Z,102105.00
2023-05-19T08:59:00.609Z,102100.00
2023-05-19T09:01:31.868Z,102107.00
2023-05-19T09:04:02.179Z,102096.00
2023-05-19T09:06:35.517Z,102086.00
2023-05-19T09:09:06.986Z,102082.00
2023-05-19T09:11:38.010Z,102085.00
2023-05-19T09:14:08.236Z,102078.00
2023-05-19T09:16:38.455Z,102077.00
2023-05-19T09:19:08.895Z,102079.00
2023-05-19T09:21:42.089Z,102075.00
2023-05-19T09:24:13.225Z,102070.00
2023-05-19T09:26:45.565Z,102070.00
2023-05-19T09:29:16.413Z,102067.00
2023-05-19T09:31:53.027Z,102049.00
2023-05-19T09:34:25.198Z,102062.00
2023-05-19T09:37:00.012Z,102064.00
2023-05-19T09:39:30.120Z,102073.00
2023-05-19T09:42:00.656Z,102063.00
2023-05-19T09:44:31.515Z,102068.00
2023-05-19T09:47:02.418Z,102064.00
2023-05-19T09:49:34.088Z,102064.00
2023-05-19T09:52:10.002Z,102055.00
2023-05-19T09:54:43.241Z,102047.00
2023-05-19T09:57:13.701Z,102046.00
2023-05-19T09:59:45.073Z,102049.00
2023-05-19T10:02:21.485Z,102052.00
2023-05-19T10:04:52.052Z,102055.00
2023-05-19T10:07:27.537Z,102062.00
2023-05-19T10:09:58.769Z,102051.00
2023-05-19T10:12:29.750Z,102032.00
2023-05-19T10:15:00.438Z,102033.00
2023-05-19T10:17:31.917Z,102036.00
2023-05-19T10:20:03.906Z,102031.00
2023-05-19T10:22:37.042Z,102037.00
2023-05-19T10:25:08.369Z,102025.00
2023-05-19T10:27:43.264Z,102026.00
2023-05-19T10:30:19.205Z,102041.00
2023-05-19T10:32:52.774Z,102036.00
2023-05-19T10:35:50.454Z,102046.00
2023-05-19T10:38:32.519Z,102042.00
2023-05-19T10:41:10.777Z,102035.00
2023-05-19T10:44:01.209Z,102029.00
2023-05-19T10:46:33.236Z,102030.00
2023-05-19T10:49:03.366Z,102039.00
2023-05-19T10:51:34.730Z,102035.00
2023-05-19T10:54:14.406Z,102030.00
2023-05-19T10:56:47.750Z,102027.00
2023-05-19T10:59:37.397Z,102024.00
2023-05-19T11:02:08.220Z,102024.00
2023-05-19T11:04:51.110Z,102020.00
2023-05-19T11:07:24.707Z,102014.00
2023-05-19T11:09:57.910Z,102021.00
2023-05-19T11:12:28.031Z,102012.00
2023-05-19T11:14:58.502Z,102015.00
2023-05-19T11:17:29.141Z,102016.00
2023-05-19T11:20:00.923Z,102016.00
2023-05-19T11:22:31.667Z,102015.00
2023-05-19T11:25:04.395Z,102011.00
2023-05-19T11:27:38.344Z,102007.00
2023-05-19T11:30:17.958Z,102011.00
2023-05-19T11:32:51.074Z,102014.00
2023-05-19T11:35:22.861Z,102019.00
2023-05-19T11:37:53.861Z,102014.00
2023-05-19T11:40:27.302Z,102008.00
2023-05-19T11:42:57.396Z,102005.00
2023-05-19T11:45:31.890Z,102008.00
2023-05-19T11:48:03.571Z,101995.00
2023-05-19T11:50:35.492Z,102002.00
2023-05-19T11:53:05.962Z,102005.00
2023-05-19T11:55:45.178Z,101997.00
2023-05-19T11:58:15.994Z,102004.00
2023-05-19T12:00:48.690Z,102007.00
2023-05-19T12:03:20.847Z,102007.00
2023-05-19T12:05:52.466Z,101999.00
2023-05-19T12:08:23.288Z,101992.00
2023-05-19T12:10:56.456Z,101985.00
2023-05-19T12:13:26.658Z,101986.00
2023-05-19T12:15:56.946Z,101988.00
2023-05-19T12:18:32.127Z,101993.00
2023-05-19T12:21:02.314Z,101994.00
2023-05-19T12:23:33.134Z,101995.00
2023-05-19T12:26:06.291Z,101997.00
2023-05-19T12:28:36.869Z,102001.00
2023-05-19T12:31:07.115Z,101992.00
2023-05-19T12:33:37.611Z,101992.00
2023-05-19T12:36:09.708Z,102005.00
2023-05-19T12:38:42.415Z,101987.00
2023-05-19T12:41:16.975Z,101991.00
2023-05-19T12:43:46.883Z,101996.00
2023-05-19T12:46:18.257Z,101996.00
2023-05-19T12:48:49.286Z,101989.00
2023-05-19T12:51:22.976Z,101996.00
2023-05-19T12:53:53.701Z,101990.00
2023-05-19T12:56:29.828Z,101972.00
2023-05-19T12:59:00.145Z,101976.00
2023-05-19T13:01:32.445Z,101975.00
2023-05-19T13:04:05.409Z,101970.00
2023-05-19T13:06:36.329Z,101968.00
2023-05-19T13:09:07.405Z,101966.00
2023-05-19T13:11:40.632Z,101972.00
2023-05-19T13:14:10.717Z,101978.00
2023-05-19T13:16:41.137Z,101971.00
2023-05-19T13:19:23.933Z,101973.00
2023-05-19T13:21:55.519Z,101968.00
2023-05-19T13:24:25.810Z,101969.00
2023-05-19T13:26:58.616Z,101972.00
2023-05-19T13:29:28.736Z,101970.00
2023-05-19T13:32:01.578Z,101975.00
2023-05-19T13:34:33.289Z,101965.00
2023-05-19T13:37:03.885Z,101976.00
2023-05-19T13:39:34.099Z,101972.00
2023-05-19T13:42:12.836Z,101969.00
2023-05-19T13:44:44.469Z,101968.00
2023-05-19T13:47:14.827Z,101964.00
2023-05-19T13:49:45.517Z,101960.00
2023-05-19T13:52:15.799Z,101967.00
2023-05-19T13:54:46.090Z,101970.00
2023-05-19T13:57:18.961Z,101952.00
2023-05-19T14:00:00.983Z,101953.00
2023-05-19T14:02:34.131Z,101966.00
2023-05-19T14:05:04.422Z,101960.00
2023-05-19T14:07:35.579Z,101972.00
2023-05-19T14:10:07.019Z,101976.00
2023-05-19T14:12:55.155Z,101965.00
2023-05-19T14:15:30.255Z,101968.00
2023-05-19T14:18:00.389Z,101969.00
2023-05-19T14:20:30.635Z,101963.00
2023-05-19T14:23:00.813Z,101968.00
2023-05-19T14:25:30.876Z,101970.00
2023-05-19T14:28:04.045Z,101975.00
2023-05-19T14:30:34.315Z,101969.00
2023-05-19T14:33:04.725Z,101972.00
2023-05-19T14:35:34.791Z,101976.00
2023-05-19T14:38:04.880Z,101980.00
2023-05-19T14:40:35.215Z,101988.00
2023-05-19T14:43:08.065Z,101985.00
2023-05-19T14:45:38.235Z,101989.00
2023-05-19T14:48:08.956Z,101985.00
2023-05-19T14:50:39.090Z,101979.00
2023-05-19T14:53:09.369Z,101984.00
2023-05-19T14:55:39.528Z,101966.00
2023-05-19T14:58:27.558Z,101975.00
2023-05-19T15:01:01.867Z,101985.00
2023-05-19T15:03:32.113Z,101983.00
2023-05-19T15:06:02.378Z,101977.00
2023-05-19T15:08:32.493Z,101978.00
2023-05-19T15:11:02.535Z,101982.00
2023-05-19T15:13:35.246Z,101982.00
2023-05-19T15:16:16.817Z,101979.00
2023-05-19T15:18:48.390Z,101977.00
2023-05-19T15:21:18.678Z,101966.00
2023-05-19T15:23:48.820Z,101975.00
2023-05-19T15:26:18.967Z,101979.00
2023-05-19T15:28:51.623Z,101970.00
2023-05-19T15:31:22.577Z,101972.00
2023-05-19T15:33:52.694Z,101970.00
2023-05-19T15:36:22.904Z,101973.00
2023-05-19T15:38:52.977Z,101976.00
2023-05-19T15:41:23.074Z,101972.00
2023-05-19T15:43:56.210Z,101965.00
2023-05-19T15:46:26.517Z,101966.00
2023-05-19T15:48:56.646Z,101969.00
2023-05-19T15:51:27.454Z,101961.00
2023-05-19T15:53:57.543Z,101972.00
2023-05-19T15:56:27.597Z,101966.00
2023-05-19T15:59:00.490Z,101970.00
2023-05-19T16:01:30.625Z,101975.00
2023-05-19T16:04:02.418Z,101968.00
2023-05-19T16:06:32.713Z,101965.00
2023-05-19T16:09:02.829Z,101973.00
2023-05-19T16:11:32.978Z,101971.00
2023-05-19T16:14:05.668Z,101963.00
2023-05-19T16:16:35.846Z,101960.00
2023-05-19T16:19:05.984Z,101961.00
2023-05-19T16:21:36.300Z,101956.00
2023-05-19T16:24:06.833Z,101957.00
2023-05-19T16:26:37.188Z,101951.00
2023-05-19T16:29:10.345Z,101948.00
2023-05-19T16:31:40.500Z,101952.00
2023-05-19T16:34:10.603Z,101953.00
2023-05-19T16:36:40.684Z,101953.00
2023-05-19T16:39:10.979Z,101949.00
2023-05-19T16:41:41.065Z,101950.00
2023-05-19T16:44:14.782Z,101955.00
2023-05-19T16:46:44.862Z,101955.00
2023-05-19T16:49:15.034Z,101945.00
2023-05-19T16:51:46.728Z,101950.00
2023-05-19T16:54:17.593Z,101947.00
2023-05-19T16:56:47.673Z,101954.00
2023-05-19T16:59:20.387Z,101948.00
2023-05-19T17:01:50.476Z,101952.00
2023-05-19T17:04:20.569Z,101950.00
2023-05-19T17:06:51.186Z,101947.00
2023-05-19T17:09:25.244Z,101948.00
2023-05-19T17:11:55.494Z,101936.00
2023-05-19T17:14:28.250Z,101963.00
2023-05-19T17:16:58.357Z,101960.00
2023-05-19T17:19:28.626Z,101950.00
2023-05-19T17:21:58.750Z,101950.00
2023-05-19T17:24:29.082Z,101957.00
2023-05-19T17:26:59.140Z,101959.00
2023-05-19T17:29:31.895Z,101963.00
2023-05-19T17:32:02.049Z,101959.00
2023-05-19T17:34:32.183Z,101963.00
2023-05-19T17:37:02.273Z,101961.00
2023-05-19T17:39:32.356Z,101964.00
2023-05-19T17:42:02.811Z,101957.00
2023-05-19T17:44:35.461Z,101966.00
2023-05-19T17:47:07.430Z,101967.00
2023-05-19T17:49:37.694Z,101972.00
2023-05-19T17:52:09.328Z,101969.00
2023-05-19T17:54:40.299Z,101972.00
2023-05-19T17:57:15.054Z,101969.00
2023-05-19T17:59:48.600Z,101974.00
2023-05-19T18:02:19.645Z,101968.00
2023-05-19T18:04:50.740Z,101970.00
2023-05-19T18:07:22.562Z,101962.00
2023-05-19T18:09:55.040Z,101973.00
2023-05-19T18:12:25.280Z,101976.00
2023-05-19T18:14:57.930Z,101973.00
2023-05-19T18:17:28.118Z,101970.00
2023-05-19T18:19:58.251Z,101968.00
2023-05-19T18:22:28.766Z,101979.00
2023-05-19T18:25:00.177Z,101980.00
2023-05-19T18:27:31.577Z,101976.00
2023-05-19T18:30:04.318Z,101986.00
2023-05-19T18:32:34.581Z,101978.00
2023-05-19T18:35:04.968Z,101981.00
2023-05-19T18:37:35.263Z,101981.00
2023-05-19T18:40:05.378Z,101990.00
2023-05-19T18:42:35.908Z,101986.00
2023-05-19T18:45:10.395Z,101992.00
2023-05-19T18:47:40.433Z,101988.00
2023-05-19T18:50:12.193Z,101993.00
2023-05-19T18:52:43.079Z,101992.00
2023-05-19T18:55:13.650Z,101989.00
2023-05-19T18:57:43.735Z,101987.00
2023-05-19T19:00:20.486Z,101994.00
2023-05-19T19:02:50.605Z,101992.00
2023-05-19T19:05:21.038Z,102000.00
2023-05-19T19:07:52.620Z,101988.00
2023-05-19T19:10:23.135Z,101994.00
2023-05-19T19:12:53.297Z,101986.00
2023-05-19T19:15:26.207Z,101999.00
2023-05-19T19:17:57.024Z,101996.00
2023-05-19T19:20:27.132Z,102001.00
2023-05-19T19:22:58.886Z,102001.00
2023-05-19T19:25:28.962Z,102002.00
2023-05-19T19:27:59.027Z,101998.00
2023-05-19T19:30:32.842Z,102001.00
2023-05-19T19:33:04.645Z,102000.00
2023-05-19T19:35:35.509Z,102000.00
2023-05-19T19:38:05.713Z,101995.00
2023-05-19T19:40:36.243Z,102000.00
2023-05-19T19:43:06.911Z,101999.00
2023-05-19T19:45:39.849Z,101998.00
2023-05-19T19:48:10.516Z,101995.00
2023-05-19T19:50:40.923Z,102001.00
2023-05-19T19:53:11.358Z,101997.00
2023-05-19T19:55:41.682Z,102003.00
2023-05-19T19:58:11.917Z,101999.00
2023-05-19T20:00:44.610Z,101995.00
2023-05-19T20:03:14.781Z,102004.00
2023-05-19T20:05:45.015Z,101996.00
2023-05-19T20:08:16.133Z,102002.00
2023-05-19T20:10:46.321Z,102001.00
2023-05-19T20:13:19.154Z,102004.00
2023-05-19T20:15:52.134Z,102004.00
2023-05-19T20:18:22.220Z,102006.00
2023-05-19T20:20:52.315Z,102006.00
2023-05-19T20:23:22.366Z,102007.00
2023-05-19T20:26:10.346Z,102006.00
2023-05-19T20:28:42.386Z,101999.00
2023-05-19T20:31:15.058Z,102004.00
2023-05-19T20:33:45.135Z,102001.00
2023-05-19T20:36:15.287Z,102010.00
2023-05-19T20:38:45.392Z,102018.00
2023-05-19T20:41:15.472Z,102024.00
2023-05-19T20:43:46.601Z,102022.00
2023-05-19T20:46:19.352Z,102019.00
2023-05-19T20:48:49.466Z,102027.00
2023-05-19T20:51:19.594Z,102026.00
2023-05-19T20:53:49.650Z,102025.00
2023-05-19T20:56:19.759Z,102020.00
2023-05-19T20:58:49.827Z,102024.00
2023-05-19T21:01:22.585Z,102025.00
2023-05-19T21:03:52.842Z,102023.00
2023-05-19T21:06:22.899Z,102024.00
2023-05-19T21:08:53.148Z,102019.00
2023-05-19T21:11:23.226Z,102018.00
2023-05-19T21:13:54.998Z,102022.00
2023-05-19T21:16:27.800Z,102027.00
2023-05-19T21:18:57.973Z,102027.00
2023-05-19T21:21:28.324Z,102027.00
2023-05-19T21:23:58.493Z,102026.00
2023-05-19T21:26:29.182Z,102030.00
2023-05-19T21:28:59.244Z,102034.00
2023-05-19T21:31:32.099Z,102037.00
2023-05-19T21:34:02.288Z,102042.00
2023-05-19T21:36:32.424Z,102037.00
2023-05-19T21:39:02.515Z,102039.00
2023-05-19T21:41:33.069Z,102044.00
2023-05-19T21:44:03.733Z,102040.00
2023-05-19T21:46:36.488Z,102052.00
2023-05-19T21:49:08.711Z,102047.00
2023-05-19T21:51:38.845Z,102046.00
2023-05-19T21:54:09.009Z,102050.00
2023-05-19T21:56:39.040Z,102052.00
2023-05-19T21:59:09.320Z,102052.00
2023-05-19T22:01:42.506Z,102044.00
2023-05-19T22:04:13.697Z,102046.00
2023-05-19T22:06:43.767Z,102037.00
2023-05-19T22:09:14.060Z,102049.00
2023-05-19T22:11:44.162Z,102050.00
2023-05-19T22:14:14.321Z,102045.00
2023-05-19T22:16:47.738Z,102050.00
2023-05-19T22:19:18.126Z,102042.00
2023-05-19T22:21:48.343Z,102054.00
2023-05-19T22:24:19.285Z,102049.00
2023-05-19T22:26:49.348Z,102038.00
2023-05-19T22:29:20.245Z,102039.00
2023-05-19T22:31:52.935Z,102037.00
2023-05-19T22:34:23.160Z,102032.00
2023-05-19T22:36:53.306Z,102039.00
2023-05-19T22:39:23.432Z,102042.00
2023-05-19T22:41:53.462Z,102052.00
2023-05-19T22:44:23.534Z,102042.00
2023-05-19T22:46:56.241Z,102052.00
2023-05-19T22:49:27.515Z,102047.00
2023-05-19T22:51:57.575Z,102046.00
2023-05-19T22:54:27.768Z,102045.00
2023-05-19T22:56:57.826Z,102051.00
2023-05-19T22:59:27.873Z,102055.00
2023-05-19T23:02:00.751Z,102056.00
2023-05-19T23:04:31.001Z,102058.00
2023-05-19T23:07:01.136Z,102059.00
2023-05-19T23:09:34.025Z,102062.00
2023-05-19T23:12:04.085Z,102067.00
2023-05-19T23:14:34.450Z,102058.00
2023-05-19T23:17:07.661Z,102054.00
2023-05-19T23:19:37.795Z,102056.00
2023-05-19T23:22:08.892Z,102057.00
2023-05-19T23:24:39.799Z,102054.00
2023-05-19T23:27:09.881Z,102049.00
2023-05-19T23:29:39.927Z,102049.00
2023-05-19T23:32:12.718Z,102057.00
2023-05-19T23:34:42.784Z,102047.00
2023-05-19T23:37:12.886Z,102048.00
2023-05-19T23:39:43.397Z,102042.00
2023-05-19T23:42:13.512Z,102034.00
2023-05-19T23:44:43.596Z,102040.00
2023-05-19T23:47:16.218Z,102035.00
2023-05-19T23:49:46.531Z,102033.00
2023-05-19T23:52:16.587Z,102023.00
2023-05-19T23:54:46.709Z,102033.00
2023-05-19T23:57:16.750Z,102032.00
2023-05-19T23:59:46.999Z,102040.00
